Time;durP1;ratioP1;P1;durP2;ratioP2;P2;SDS_P1;SDS_P2;PMS_P1;PMS_P2;Temp;Humidity;BMP_temperature;BMP_pressure;BME280_temperature;BME280_humidity;BME280_pressure;Samples;Min_cycle;Max_cycle;Signal;HPM_P1;HPM_P2
2022/05/23 00:00:36;;;;;;;;;;;;;;;24.47;63.08;98869.66;2041562;28;20349;-46
2022/05/23 00:01:36;;;;;;;;;;;;;;;24.45;63.09;98872.59;2043415;28;20210;-45
2022/05/23 00:02:37;;;;;;;;;;;;;;;24.46;63.00;98885.34;2041100;28;19972;-45
2022/05/23 00:03:37;;;;;;;;;;;;;;;24.46;63.05;98879.00;2044331;28;20229;-45
2022/05/23 00:04:37;;;;;;;;;;;;;;;24.46;63.17;98876.22;2043895;28;19962;-45
2022/05/23 00:05:39;;;;;;;;;;;;;;;24.45;63.03;98882.75;2040497;28;19941;-46
2022/05/23 00:06:40;;;;;;;;;;;;;;;24.44;62.95;98881.06;2042610;28;20156;-46
2022/05/23 00:07:42;;;;;;;;;;;;;;;24.44;63.25;98881.91;2039923;28;20294;-46
2022/05/23 00:08:42;;;;;;;;;;;;;;;24.45;62.98;98896.53;2042809;28;19918;-45
2022/05/23 00:09:42;;;;;;;;;;;;;;;24.45;62.93;98899.28;2043619;28;19956;-45
2022/05/23 00:10:43;;;;;;;;;;;;;;;24.45;62.94;98899.28;2043843;28;19918;-45
2022/05/23 00:11:43;;;;;;;;;;;;;;;24.45;63.17;98904.78;2042772;28;19918;-45
2022/05/23 00:12:44;;;;;;;;;;;;;;;24.45;63.02;98910.28;2044043;28;20429;-45
2022/05/23 00:13:44;;;;;;;;;;;;;;;24.45;63.21;98910.28;2041656;28;20430;-45
2022/05/23 00:14:44;;;;;;;;;;;;;;;24.44;63.13;98914.97;2044411;28;19918;-45
2022/05/23 00:15:45;;;;;;;;;;;;;;;24.45;63.03;98918.56;2041873;28;20268;-45
2022/05/23 00:16:47;;;;;;;;;;;;;;;24.45;63.16;98918.56;2043673;28;20005;-46
2022/05/23 00:17:47;;;;;;;;;;;;;;;24.44;63.06;98920.47;2038023;28;20066;-45
2022/05/23 00:18:48;;;;;;;;;;;;;;;24.45;63.10;98929.59;2043364;28;20241;-46
2022/05/23 00:19:50;;;;;;;;;;;;;;;24.44;62.94;98927.91;2039096;28;19925;-46
2022/05/23 00:20:50;;;;;;;;;;;;;;;24.44;62.83;98931.50;2041376;28;19934;-46
2022/05/23 00:21:51;;;;;;;;;;;;;;;24.44;62.97;98930.66;2043497;28;20300;-45
2022/05/23 00:22:51;;;;;;;;;;;;;;;24.44;62.94;98936.16;2038290;28;19925;-45
2022/05/23 00:23:52;;;;;;;;;;;;;;;24.44;62.89;98936.16;2041952;28;19922;-45
2022/05/23 00:24:52;;;;;;;;;;;;;;;24.44;63.06;98931.50;2040424;28;19968;-45
2022/05/23 00:25:53;;;;;;;;;;;;;;;24.44;62.95;98936.16;2043239;28;19926;-45
2022/05/23 00:26:53;;;;;;;;;;;;;;;24.44;62.95;98936.16;2044022;28;19918;-45
2022/05/23 00:27:53;;;;;;;;;;;;;;;24.44;62.87;98938.91;2042858;28;20107;-46
2022/05/23 00:28:54;;;;;;;;;;;;;;;24.42;62.92;98944.63;2042305;28;19914;-46
2022/05/23 00:29:54;;;;;;;;;;;;;;;24.44;62.80;98949.94;2038751;28;19993;-46
2022/05/23 00:30:54;;;;;;;;;;;;;;;24.45;62.92;98962.63;2044520;28;19976;-45
2022/05/23 00:35:54;;;;;;;;;;;;;;;24.43;62.56;98967.53;2040918;28;19918;-46
2022/05/23 00:36:54;;;;;;;;;;;;;;;24.43;62.60;98979.38;2042962;28;19941;-45
2022/05/23 00:37:58;;;;;;;;;;;;;;;24.44;62.39;98986.59;2043216;28;19914;-45
2022/05/23 00:38:59;;;;;;;;;;;;;;;24.43;62.16;98979.38;2043953;28;20231;-48
2022/05/23 00:39:59;;;;;;;;;;;;;;;24.43;62.08;98976.63;2039529;28;19919;-46
2022/05/23 00:43:48;;;;;;;;;;;;;;;24.43;61.86;98982.16;2038975;28;20439;-46
2022/05/23 00:44:53;;;;;;;;;;;;;;;24.43;61.86;98984.91;2040405;28;19919;-45
2022/05/23 00:45:55;;;;;;;;;;;;;;;24.43;61.79;98981.31;2043445;28;20028;-45
2022/05/23 00:47:00;;;;;;;;;;;;;;;24.42;61.86;98971.31;2042994;28;19925;-45
2022/05/23 00:48:01;;;;;;;;;;;;;;;24.42;61.63;98979.59;2040628;28;19922;-46
2022/05/23 00:49:02;;;;;;;;;;;;;;;24.42;61.46;98982.34;2043428;28;19928;-45
2022/05/23 00:50:03;;;;;;;;;;;;;;;24.42;61.50;98976.84;2040221;28;19918;-46
2022/05/23 00:51:07;;;;;;;;;;;;;;;24.41;61.63;98976.00;2041043;28;19928;-46
2022/05/23 00:52:09;;;;;;;;;;;;;;;24.41;61.41;98967.72;2043897;28;19929;-45
2022/05/23 00:53:10;;;;;;;;;;;;;;;24.42;61.42;98971.31;2042668;28;20017;-46
2022/05/23 00:54:11;;;;;;;;;;;;;;;24.41;61.29;98972.41;2038556;28;19945;-45
2022/05/23 00:55:19;;;;;;;;;;;;;;;24.41;61.10;98975.16;2042341;28;19973;-45
2022/05/23 00:56:20;;;;;;;;;;;;;;;24.41;61.42;98975.16;2039743;28;19929;-46
2022/05/23 00:57:22;;;;;;;;;;;;;;;24.41;61.16;98976.00;2038939;28;20012;-45
2022/05/23 00:58:26;;;;;;;;;;;;;;;24.41;61.15;98980.66;2041834;28;20730;-45
2022/05/23 00:59:28;;;;;;;;;;;;;;;24.41;61.42;98981.50;2040733;28;19918;-46
2022/05/23 01:00:28;;;;;;;;;;;;;;;24.42;61.30;98976.84;2042019;28;20726;-45
2022/05/23 01:01:31;;;;;;;;;;;;;;;24.41;61.09;98970.50;2044457;28;19918;-45
2022/05/23 01:02:31;;;;;;;;;;;;;;;24.42;61.19;98971.31;2041748;28;19921;-45
2022/05/23 01:03:31;;;;;;;;;;;;;;;24.42;61.17;98976.84;2041614;28;20343;-45
2022/05/23 01:04:32;;;;;;;;;;;;;;;24.41;61.17;98969.66;2044103;28;19965;-45
2022/05/23 01:05:35;;;;;;;;;;;;;;;24.40;61.27;98966.06;2042050;28;19961;-45
2022/05/23 01:06:35;;;;;;;;;;;;;;;24.41;61.18;98970.50;2046534;28;19961;-46
2022/05/23 01:07:36;;;;;;;;;;;;;;;24.41;61.34;98964.13;2042145;28;20258;-45
2022/05/23 01:08:38;;;;;;;;;;;;;;;24.40;61.52;98957.78;2041859;28;19925;-45
2022/05/23 01:09:39;;;;;;;;;;;;;;;24.42;61.27;98952.06;2044891;28;20738;-45
2022/05/23 01:10:39;;;;;;;;;;;;;;;24.39;61.35;98945.91;2041028;28;20021;-46
2022/05/23 01:11:40;;;;;;;;;;;;;;;24.41;61.18;98944.84;2044433;28;20242;-44
2022/05/23 01:12:41;;;;;;;;;;;;;;;24.39;61.44;98948.66;2042410;28;19926;-44
2022/05/23 01:13:42;;;;;;;;;;;;;;;24.38;61.41;98944.22;2043031;28;20017;-46
2022/05/23 01:14:47;;;;;;;;;;;;;;;24.39;61.45;98951.41;2044310;28;19918;-47
2022/05/23 01:15:48;;;;;;;;;;;;;;;24.40;61.49;98952.28;2042243;28;19910;-44
2022/05/23 01:16:49;;;;;;;;;;;;;;;24.40;61.26;98957.78;2042950;28;19922;-45
2022/05/23 01:17:49;;;;;;;;;;;;;;;24.40;61.46;98968.81;2043863;28;20198;-44
2022/05/23 01:18:50;;;;;;;;;;;;;;;24.41;61.29;98975.16;2046279;28;20509;-45
2022/05/23 01:19:51;;;;;;;;;;;;;;;24.40;61.29;98985.34;2042724;28;19910;-45
2022/05/23 01:20:56;;;;;;;;;;;;;;;24.41;61.20;98988.94;2043200;28;19918;-45
2022/05/23 01:22:03;;;;;;;;;;;;;;;24.41;61.24;98991.69;2040151;28;19957;-45
2022/05/23 01:23:04;;;;;;;;;;;;;;;24.41;61.10;98997.19;2043691;28;20948;-46
2022/05/23 01:24:09;;;;;;;;;;;;;;;24.39;61.06;98995.47;2042946;28;19977;-45
2022/05/23 01:25:09;;;;;;;;;;;;;;;24.39;61.20;99005.66;2040520;28;19917;-44
2022/05/23 01:26:09;;;;;;;;;;;;;;;24.39;61.24;99006.50;2043268;28;19922;-46
2022/05/23 01:27:10;;;;;;;;;;;;;;;24.39;61.25;99003.75;2041556;28;19921;-45
2022/05/23 01:28:11;;;;;;;;;;;;;;;24.39;60.84;99000.13;2044171;28;19914;-44
2022/05/23 01:29:12;;;;;;;;;;;;;;;24.38;61.27;98993.78;2044246;28;20363;-45
2022/05/23 01:30:14;;;;;;;;;;;;;;;24.37;61.42;98997.59;2043691;28;19914;-45
2022/05/23 01:31:16;;;;;;;;;;;;;;;24.38;61.46;98998.47;2043221;28;20459;-45
2022/05/23 01:32:16;;;;;;;;;;;;;;;24.37;61.30;98992.06;2036877;28;20161;-45
2022/05/23 01:33:16;;;;;;;;;;;;;;;24.37;61.23;99003.09;2043986;28;20090;-47
2022/05/23 01:34:17;;;;;;;;;;;;;;;24.37;61.30;99003.09;2043043;28;19918;-45
2022/05/23 01:35:17;;;;;;;;;;;;;;;24.37;61.26;99008.59;2043718;28;19960;-45
2022/05/23 01:36:18;;;;;;;;;;;;;;;24.36;61.31;99017.94;2043744;28;19945;-44
2022/05/23 01:37:18;;;;;;;;;;;;;;;24.36;61.32;99023.44;2042369;28;19934;-45
2022/05/23 01:38:18;;;;;;;;;;;;;;;24.37;61.33;99033.38;2041735;28;19914;-45
2022/05/23 01:39:19;;;;;;;;;;;;;;;24.38;61.14;99037.88;2040774;28;19921;-45
2022/05/23 01:40:20;;;;;;;;;;;;;;;24.38;61.14;99042.53;2043986;28;19922;-46
2022/05/23 01:41:20;;;;;;;;;;;;;;;24.37;61.22;99041.66;2050811;28;19974;-45
2022/05/23 01:42:20;;;;;;;;;;;;;;;24.37;61.07;99041.66;2042716;28;19918;-45
2022/05/23 01:43:21;;;;;;;;;;;;;;;24.37;61.30;99047.16;2041584;28;19915;-44
2022/05/23 01:44:21;;;;;;;;;;;;;;;24.38;61.42;99062.66;2043412;28;19922;-45
2022/05/23 01:45:26;;;;;;;;;;;;;;;24.38;61.28;99054.38;2043091;28;20333;-45
2022/05/23 01:46:27;;;;;;;;;;;;;;;24.38;61.37;99046.13;2037447;28;19932;-44
2022/05/23 01:47:27;;;;;;;;;;;;;;;24.38;61.19;99054.38;2042547;28;20384;-45
2022/05/23 01:48:28;;;;;;;;;;;;;;;24.37;61.33;99052.66;2037895;28;20419;-45
2022/05/23 01:49:28;;;;;;;;;;;;;;;24.37;61.37;99052.66;2043544;28;19957;-44
2022/05/23 01:50:28;;;;;;;;;;;;;;;24.37;61.36;99046.31;2043268;28;19922;-44
2022/05/23 01:51:29;;;;;;;;;;;;;;;24.37;61.30;99040.81;2043365;28;20222;-45
2022/05/23 01:52:29;;;;;;;;;;;;;;;24.37;61.27;99041.66;2045447;28;19929;-45
2022/05/23 01:53:29;;;;;;;;;;;;;;;24.36;61.50;99045.47;2042003;28;19963;-44
2022/05/23 01:54:29;;;;;;;;;;;;;;;24.37;61.28;99058.19;2043586;28;20713;-45
2022/05/23 01:55:30;;;;;;;;;;;;;;;24.36;61.37;99051.00;2042765;28;19981;-44
2022/05/23 01:56:31;;;;;;;;;;;;;;;24.36;61.52;99051.00;2043106;28;19929;-44
2022/05/23 01:57:32;;;;;;;;;;;;;;;24.36;61.25;99045.47;2040388;28;19933;-44
2022/05/23 02:01:14;;;;;;;;;;;;;;;24.35;61.56;99032.78;2042336;28;20363;-44
2022/05/23 02:02:14;;;;;;;;;;;;;;;24.34;61.64;99031.06;2041730;28;20849;-47
2022/05/23 02:03:15;;;;;;;;;;;;;;;24.34;61.55;99025.56;2047258;28;20047;-45
2022/05/23 02:04:15;;;;;;;;;;;;;;;24.34;61.55;99033.81;2043087;28;19969;-45
2022/05/23 02:05:16;;;;;;;;;;;;;;;24.34;61.47;99031.06;2043392;28;20293;-45
2022/05/23 02:06:16;;;;;;;;;;;;;;;24.34;61.53;99030.22;2054136;28;19925;-46
2022/05/23 02:07:16;;;;;;;;;;;;;;;24.34;61.49;99024.72;2052937;28;19964;-46
2022/05/23 02:08:17;;;;;;;;;;;;;;;24.34;61.49;99024.72;2045830;28;19926;-45
2022/05/23 02:09:26;;;;;;;;;;;;;;;24.33;61.38;99018.38;2039375;28;19981;-45
2022/05/23 02:10:27;;;;;;;;;;;;;;;24.33;61.46;99020.28;2044376;28;20343;-46
2022/05/23 02:11:27;;;;;;;;;;;;;;;24.33;61.58;99012.03;2044314;28;19918;-45
2022/05/23 02:12:28;;;;;;;;;;;;;;;24.33;61.62;99006.50;2044595;28;19929;-46
2022/05/23 02:13:30;;;;;;;;;;;;;;;24.32;61.51;99002.88;2044919;28;20380;-45
2022/05/23 02:14:31;;;;;;;;;;;;;;;24.32;61.41;99005.63;2043225;28;20618;-44
2022/05/23 02:15:32;;;;;;;;;;;;;;;24.32;61.54;99002.88;2044703;28;20521;-45
2022/05/23 02:16:32;;;;;;;;;;;;;;;24.32;61.47;99005.63;2043956;28;19981;-45
2022/05/23 02:17:33;;;;;;;;;;;;;;;24.32;61.42;99010.31;2043643;28;20011;-45
2022/05/23 02:18:33;;;;;;;;;;;;;;;24.32;61.58;99018.56;2044079;28;20242;-46
2022/05/23 02:19:33;;;;;;;;;;;;;;;24.33;61.43;99012.84;2043931;28;19988;-45
2022/05/23 02:20:33;;;;;;;;;;;;;;;24.32;61.42;99005.63;2041172;28;19965;-45
2022/05/23 02:21:34;;;;;;;;;;;;;;;24.33;61.66;99001.00;2039708;28;19962;-45
2022/05/23 02:22:34;;;;;;;;;;;;;;;24.33;61.53;99012.84;2043304;28;19910;-45
2022/05/23 02:23:36;;;;;;;;;;;;;;;24.33;61.43;99017.53;2042844;28;19928;-45
2022/05/23 02:24:37;;;;;;;;;;;;;;;24.32;61.50;99010.31;2043041;28;19929;-45
2022/05/23 02:25:37;;;;;;;;;;;;;;;24.33;61.40;99018.38;2043159;28;19917;-46
2022/05/23 02:26:38;;;;;;;;;;;;;;;24.33;61.42;99006.50;2039025;28;19923;-45
2022/05/23 02:27:38;;;;;;;;;;;;;;;24.33;61.58;99004.59;2044199;28;19922;-45
2022/05/23 02:28:38;;;;;;;;;;;;;;;24.33;61.58;99004.59;2042472;28;19918;-45
2022/05/23 02:29:39;;;;;;;;;;;;;;;24.33;61.59;99003.75;2041882;28;19922;-45
2022/05/23 02:30:39;;;;;;;;;;;;;;;24.32;61.56;99002.03;2042809;28;20008;-46
2022/05/23 02:31:40;;;;;;;;;;;;;;;24.33;61.66;99001.84;2043746;28;20389;-45
2022/05/23 02:32:40;;;;;;;;;;;;;;;24.32;61.54;99002.88;2044065;28;19977;-45
2022/05/23 02:33:41;;;;;;;;;;;;;;;24.32;61.67;99000.13;2038836;28;19925;-45
2022/05/23 02:34:42;;;;;;;;;;;;;;;24.32;61.65;99008.38;2043192;28;19918;-46
2022/05/23 02:35:42;;;;;;;;;;;;;;;24.33;61.58;99009.25;2045579;28;19906;-46
2022/05/23 02:36:43;;;;;;;;;;;;;;;24.33;61.57;99021.13;2043407;28;19918;-46
2022/05/23 02:37:43;;;;;;;;;;;;;;;24.33;61.63;99021.13;2043410;28;19930;-44
2022/05/23 02:38:43;;;;;;;;;;;;;;;24.33;61.58;99029.38;2043606;28;20345;-45
2022/05/23 02:39:44;;;;;;;;;;;;;;;24.32;61.57;99027.66;2042650;28;20474;-45
2022/05/23 02:40:44;;;;;;;;;;;;;;;24.33;61.61;99025.78;2046686;28;20539;-45
2022/05/23 02:41:44;;;;;;;;;;;;;;;24.32;61.63;99010.31;2042815;28;19918;-45
2022/05/23 02:42:45;;;;;;;;;;;;;;;24.33;61.51;99010.09;2043440;28;19929;-45
2022/05/23 02:43:45;;;;;;;;;;;;;;;24.31;61.81;99003.97;2040253;28;19960;-45
2022/05/23 02:44:46;;;;;;;;;;;;;;;24.32;61.91;98999.28;2044137;28;19922;-45
2022/05/23 02:45:46;;;;;;;;;;;;;;;24.31;61.68;98995.69;2044571;28;19953;-44
2022/05/23 02:46:47;;;;;;;;;;;;;;;24.31;61.77;98992.09;2043527;28;20404;-45
2022/05/23 02:47:47;;;;;;;;;;;;;;;24.30;61.68;98994.00;2046255;28;20297;-45
2022/05/23 02:48:48;;;;;;;;;;;;;;;24.30;61.70;98990.38;2045446;28;19960;-47
2022/05/23 02:49:48;;;;;;;;;;;;;;;24.29;61.61;98992.28;2044051;28;19938;-44
2022/05/23 02:50:49;;;;;;;;;;;;;;;24.30;61.61;98990.38;2042620;28;19923;-45
2022/05/23 02:51:49;;;;;;;;;;;;;;;24.30;61.52;99002.28;2044209;28;19914;-45
2022/05/23 02:52:50;;;;;;;;;;;;;;;24.29;61.53;99000.56;2044363;28;19928;-45
2022/05/23 02:53:50;;;;;;;;;;;;;;;24.29;61.54;99006.06;2043124;28;20014;-45
2022/05/23 02:54:50;;;;;;;;;;;;;;;24.29;61.62;99011.56;2043281;28;19910;-45
2022/05/23 02:55:51;;;;;;;;;;;;;;;24.30;61.60;99006.91;2040112;28;19918;-47
2022/05/23 02:56:51;;;;;;;;;;;;;;;24.30;61.51;99006.91;2042949;28;19929;-46
2022/05/23 02:57:52;;;;;;;;;;;;;;;24.29;61.53;99000.56;2045552;28;19933;-45
2022/05/23 02:58:52;;;;;;;;;;;;;;;24.29;61.69;99006.06;2044179;28;19928;-46
2022/05/23 02:59:53;;;;;;;;;;;;;;;24.29;61.50;99006.06;2042855;28;19965;-46
2022/05/23 03:00:53;;;;;;;;;;;;;;;24.29;61.65;99005.22;2044060;28;19922;-44
2022/05/23 03:03:12;;;;;;;;;;;;;;;24.28;61.59;99015.41;2040298;28;19914;-46
2022/05/23 03:04:13;;;;;;;;;;;;;;;24.30;61.48;99007.78;2044193;28;19922;-45
2022/05/23 03:05:13;;;;;;;;;;;;;;;24.30;61.58;99007.78;2042300;28;19921;-46
2022/05/23 03:06:13;;;;;;;;;;;;;;;24.30;61.42;99017.91;2043780;28;19929;-45
2022/05/23 03:07:14;;;;;;;;;;;;;;;24.28;61.57;99004.38;2041808;28;19917;-45
2022/05/23 03:08:16;;;;;;;;;;;;;;;24.29;61.60;98997.81;2042981;28;19941;-45
2022/05/23 03:09:17;;;;;;;;;;;;;;;24.30;61.54;98984.88;2043085;28;19930;-45
2022/05/23 03:10:17;;;;;;;;;;;;;;;24.29;61.67;98989.53;2039551;28;20393;-47
2022/05/23 03:11:18;;;;;;;;;;;;;;;24.29;61.62;98984.03;2044944;28;19933;-45
2022/05/23 03:12:18;;;;;;;;;;;;;;;24.29;61.50;98978.53;2042828;28;19922;-46
2022/05/23 03:13:18;;;;;;;;;;;;;;;24.29;61.49;98973.03;2041486;28;20694;-47
2022/05/23 03:14:18;;;;;;;;;;;;;;;24.28;61.60;98965.84;2044670;28;19969;-45
2022/05/23 03:15:19;;;;;;;;;;;;;;;24.28;61.71;98953.97;2041540;28;20301;-46
2022/05/23 03:16:20;;;;;;;;;;;;;;;24.28;61.63;98952.06;2044147;28;19918;-46
2022/05/23 03:17:20;;;;;;;;;;;;;;;24.29;61.58;98950.16;2042729;28;19957;-46
2022/05/23 03:18:21;;;;;;;;;;;;;;;24.28;61.55;98946.56;2044886;28;20039;-45
2022/05/23 03:19:21;;;;;;;;;;;;;;;24.28;61.54;98932.78;2044474;28;19922;-46
2022/05/23 03:20:21;;;;;;;;;;;;;;;24.27;61.69;98936.59;2044152;28;20233;-45
2022/05/23 03:27:57;;;;;;;;;;;;;;;24.26;61.64;98945.91;2044537;28;19961;-45
2022/05/23 03:29:00;;;;;;;;;;;;;;;24.26;61.65;98954.19;2042423;28;20316;-49
2022/05/23 03:30:00;;;;;;;;;;;;;;;24.27;61.66;98957.78;2044773;28;19918;-45
2022/05/23 03:31:01;;;;;;;;;;;;;;;24.26;61.71;98956.94;2042825;28;19918;-46
2022/05/23 03:32:01;;;;;;;;;;;;;;;24.26;61.56;98956.94;2041586;28;19914;-45
2022/05/23 03:33:02;;;;;;;;;;;;;;;24.27;61.56;98968.78;2044826;28;20102;-46
2022/05/23 03:34:03;;;;;;;;;;;;;;;24.26;61.41;98967.94;2042656;28;20119;-45
2022/05/23 03:35:03;;;;;;;;;;;;;;;24.26;61.44;98973.44;2043782;28;20357;-45
2022/05/23 03:36:03;;;;;;;;;;;;;;;24.26;61.64;98972.59;2045074;28;19947;-45
2022/05/23 03:37:05;;;;;;;;;;;;;;;24.25;61.51;98968.97;2040895;28;19926;-46
2022/05/23 03:38:06;;;;;;;;;;;;;;;24.25;61.53;98974.50;2042447;28;19981;-46
2022/05/23 03:39:06;;;;;;;;;;;;;;;24.26;61.56;98967.94;2042685;28;20828;-46
2022/05/23 03:40:07;;;;;;;;;;;;;;;24.26;61.56;98962.44;2043548;28;19925;-45
2022/05/23 03:41:09;;;;;;;;;;;;;;;24.26;61.53;98962.44;2044563;28;19911;-45
2022/05/23 03:42:09;;;;;;;;;;;;;;;24.26;61.56;98962.44;2041622;28;19918;-45
2022/05/23 03:43:11;;;;;;;;;;;;;;;24.26;61.52;98951.41;2042080;28;19914;-45
2022/05/23 03:44:11;;;;;;;;;;;;;;;24.26;61.62;98956.94;2044533;28;19922;-47
2022/05/23 03:45:11;;;;;;;;;;;;;;;24.27;61.45;98957.78;2041212;28;19918;-46
2022/05/23 03:46:13;;;;;;;;;;;;;;;24.26;61.69;98956.94;2042865;28;19918;-45
2022/05/23 03:47:13;;;;;;;;;;;;;;;24.26;61.61;98956.94;2044146;28;19914;-46
2022/05/23 03:48:13;;;;;;;;;;;;;;;24.26;61.46;98959.69;2042326;28;19930;-45
2022/05/23 03:49:14;;;;;;;;;;;;;;;24.27;61.69;98961.38;2044904;28;19937;-46
2022/05/23 03:50:14;;;;;;;;;;;;;;;24.27;61.47;98966.03;2040770;28;20248;-46
2022/05/23 03:51:15;;;;;;;;;;;;;;;24.26;61.38;98959.69;2040908;28;20052;-45
2022/05/23 03:52:15;;;;;;;;;;;;;;;24.26;61.42;98962.44;2042351;28;19918;-46
2022/05/23 03:53:15;;;;;;;;;;;;;;;24.26;61.65;98962.44;2041686;28;19918;-45
2022/05/23 03:54:16;;;;;;;;;;;;;;;24.27;61.70;98957.78;2045637;28;20304;-45
2022/05/23 03:55:17;;;;;;;;;;;;;;;24.25;61.50;98955.22;2043922;28;19917;-47
2022/05/23 03:56:18;;;;;;;;;;;;;;;24.25;61.72;98952.47;2040663;28;19924;-45
2022/05/23 03:57:18;;;;;;;;;;;;;;;24.25;61.56;98944.19;2042928;28;19914;-47
2022/05/23 03:58:18;;;;;;;;;;;;;;;24.26;61.67;98950.59;2042428;28;19906;-45
2022/05/23 03:59:18;;;;;;;;;;;;;;;24.26;61.62;98945.06;2044215;28;20337;-45
2022/05/23 04:00:19;;;;;;;;;;;;;;;24.25;61.61;98955.22;2042537;28;20061;-45
2022/05/23 04:01:21;;;;;;;;;;;;;;;24.24;61.54;98947.19;2044883;28;19918;-45
2022/05/23 04:02:22;;;;;;;;;;;;;;;24.24;61.56;98948.03;2046014;28;20696;-45
2022/05/23 04:03:22;;;;;;;;;;;;;;;24.24;61.78;98950.78;2042250;28;20373;-45
2022/05/23 04:04:29;;;;;;;;;;;;;;;24.24;61.72;98948.03;2043373;28;20017;-45
2022/05/23 04:05:30;;;;;;;;;;;;;;;24.24;61.71;98948.03;2045309;28;20508;-45
2022/05/23 04:06:30;;;;;;;;;;;;;;;24.23;61.50;98949.09;2051786;28;20035;-45
2022/05/23 04:07:33;;;;;;;;;;;;;;;24.22;61.73;98947.38;2040862;28;19918;-45
2022/05/23 04:08:35;;;;;;;;;;;;;;;24.23;61.68;98951.84;2043107;28;19986;-46
2022/05/23 04:09:35;;;;;;;;;;;;;;;24.22;61.65;98955.66;2039464;28;20664;-45
2022/05/23 04:10:36;;;;;;;;;;;;;;;24.22;61.86;98952.88;2042668;28;19918;-44
2022/05/23 04:11:36;;;;;;;;;;;;;;;24.22;61.75;98950.13;2044455;28;19969;-46
2022/05/23 04:12:37;;;;;;;;;;;;;;;24.22;61.72;98961.16;2043189;28;20239;-46
2022/05/23 04:13:37;;;;;;;;;;;;;;;24.21;61.84;98964.97;2044234;28;20011;-45
2022/05/23 04:14:37;;;;;;;;;;;;;;;24.22;61.79;98972.16;2042927;28;20486;-45
2022/05/23 04:15:40;;;;;;;;;;;;;;;24.22;61.82;98966.66;2042083;28;19961;-46
2022/05/23 04:16:43;;;;;;;;;;;;;;;24.22;61.74;98972.16;2042967;28;20393;-45
2022/05/23 04:17:44;;;;;;;;;;;;;;;24.22;61.88;98974.06;2042934;28;19922;-46
2022/05/23 04:18:44;;;;;;;;;;;;;;;24.23;61.84;98978.50;2043581;28;20585;-45
2022/05/23 04:19:44;;;;;;;;;;;;;;;24.22;61.95;98982.34;2042575;28;19963;-45
2022/05/23 04:20:45;;;;;;;;;;;;;;;24.22;61.68;98977.69;2043449;28;20153;-45
2022/05/23 04:21:46;;;;;;;;;;;;;;;24.23;61.81;98984.03;2040354;28;20337;-45
2022/05/23 04:22:46;;;;;;;;;;;;;;;24.22;61.81;98982.34;2044488;28;19922;-45
2022/05/23 04:23:47;;;;;;;;;;;;;;;24.22;61.81;98983.19;2042452;28;19924;-45
2022/05/23 04:24:47;;;;;;;;;;;;;;;24.22;61.61;98985.94;2042913;28;19964;-45
2022/05/23 04:25:48;;;;;;;;;;;;;;;24.21;61.77;98992.50;2044270;28;19961;-45
2022/05/23 04:26:52;;;;;;;;;;;;;;;24.22;61.75;98993.34;2039558;28;19937;-45
2022/05/23 04:27:53;;;;;;;;;;;;;;;24.22;61.69;98994.19;2042758;28;20300;-45
2022/05/23 04:28:53;;;;;;;;;;;;;;;24.22;61.69;98998.84;2041203;28;19910;-45
2022/05/23 04:29:54;;;;;;;;;;;;;;;24.22;61.82;98991.44;2043100;28;20342;-45
2022/05/23 04:30:55;;;;;;;;;;;;;;;24.20;61.77;99001.81;2043405;28;19942;-45
2022/05/23 04:31:55;;;;;;;;;;;;;;;24.22;61.87;98998.84;2038693;28;20393;-45
2022/05/23 04:35:33;;;;;;;;;;;;;;;24.22;61.61;99009.88;2042642;28;19918;-45
2022/05/23 04:36:33;;;;;;;;;;;;;;;24.21;61.70;99006.28;2042262;28;19942;-45
2022/05/23 04:37:33;;;;;;;;;;;;;;;24.22;61.65;99005.22;2044083;28;20325;-45
2022/05/23 04:38:34;;;;;;;;;;;;;;;24.22;61.63;99007.97;2044523;28;19968;-45
2022/05/23 04:39:34;;;;;;;;;;;;;;;24.19;61.86;99002.88;2042912;28;19965;-45
2022/05/23 04:40:34;;;;;;;;;;;;;;;24.19;61.80;99011.16;2043250;28;19929;-45
2022/05/23 04:41:35;;;;;;;;;;;;;;;24.20;61.79;99010.06;2042729;28;20028;-46
2022/05/23 04:42:35;;;;;;;;;;;;;;;24.19;61.84;99011.16;2044503;28;19918;-45
2022/05/23 04:43:35;;;;;;;;;;;;;;;24.19;61.85;99011.16;2043239;28;20157;-45
2022/05/23 04:44:36;;;;;;;;;;;;;;;24.19;61.94;99016.66;2041837;28;20316;-49
2022/05/23 04:45:36;;;;;;;;;;;;;;;24.18;62.22;99010.31;2043225;28;19953;-47
2022/05/23 04:46:36;;;;;;;;;;;;;;;24.19;62.29;99005.63;2041408;28;20353;-49
2022/05/23 04:50:15;;;;;;;;;;;;;;;24.21;61.85;99014.53;2041141;28;20020;-46
2022/05/23 04:51:15;;;;;;;;;;;;;;;24.21;61.84;99020.03;2042089;28;19918;-46
2022/05/23 04:52:19;;;;;;;;;;;;;;;24.22;61.84;99030.00;2044022;28;20415;-45
2022/05/23 04:53:20;;;;;;;;;;;;;;;24.23;62.04;99028.06;2042892;28;20326;-44
2022/05/23 04:54:20;;;;;;;;;;;;;;;24.22;62.12;99032.75;2044695;28;19910;-44
2022/05/23 04:55:20;;;;;;;;;;;;;;;24.23;61.95;99031.72;2050691;28;19918;-45
2022/05/23 04:56:21;;;;;;;;;;;;;;;24.24;61.95;99033.38;2054687;28;19925;-44
2022/05/23 04:57:22;;;;;;;;;;;;;;;24.24;62.05;99033.38;2051202;28;19918;-46
2022/05/23 04:58:22;;;;;;;;;;;;;;;24.25;62.11;99042.50;2039297;28;20318;-46
2022/05/23 04:59:22;;;;;;;;;;;;;;;24.25;62.20;99029.56;2040323;28;19976;-45
2022/05/23 05:00:23;;;;;;;;;;;;;;;24.25;62.10;99032.31;2039906;28;19918;-47
2022/05/23 05:01:24;;;;;;;;;;;;;;;24.26;62.16;99033.19;2041740;28;19997;-48
2022/05/23 05:02:24;;;;;;;;;;;;;;;24.26;61.92;99036.78;2043966;28;19925;-46
2022/05/23 05:03:25;;;;;;;;;;;;;;;24.26;62.11;99034.03;2039032;28;20484;-46
2022/05/23 05:04:25;;;;;;;;;;;;;;;24.26;62.15;99036.78;2042299;28;19989;-48
2022/05/23 05:05:27;;;;;;;;;;;;;;;24.27;61.95;99038.47;2042090;28;19914;-46
2022/05/23 05:06:27;;;;;;;;;;;;;;;24.28;62.16;99042.94;2043763;28;19918;-45
2022/05/23 05:07:28;;;;;;;;;;;;;;;24.28;62.13;99037.44;2041652;28;19920;-45
2022/05/23 05:08:28;;;;;;;;;;;;;;;24.28;62.28;99034.69;2042472;28;20340;-50
2022/05/23 05:09:29;;;;;;;;;;;;;;;24.29;62.17;99038.28;2043734;28;19924;-47
2022/05/23 05:10:29;;;;;;;;;;;;;;;24.30;62.08;99051.84;2042842;28;20091;-47
2022/05/23 05:11:30;;;;;;;;;;;;;;;24.30;62.16;99048.22;2043478;28;19918;-46
2022/05/23 05:12:30;;;;;;;;;;;;;;;24.30;62.26;99046.34;2043123;28;20029;-50
2022/05/23 05:13:36;;;;;;;;;;;;;;;24.31;62.38;99048.00;2042337;28;19922;-47
2022/05/23 05:14:36;;;;;;;;;;;;;;;24.32;62.21;99043.34;2043605;28;19945;-55
2022/05/23 05:15:36;;;;;;;;;;;;;;;24.32;62.26;99046.94;2040743;28;19914;-50
2022/05/23 05:16:37;;;;;;;;;;;;;;;24.32;62.27;99049.69;2044312;28;19926;-48
2022/05/23 05:17:37;;;;;;;;;;;;;;;24.33;62.70;99048.66;2045511;28;19917;-48
2022/05/23 05:18:37;;;;;;;;;;;;;;;24.33;62.47;99051.41;2043184;28;19935;-46
2022/05/23 05:19:38;;;;;;;;;;;;;;;24.31;62.25;99048.00;2042369;28;19973;-47
2022/05/23 05:20:38;;;;;;;;;;;;;;;24.29;62.28;99044.63;2044469;28;20001;-51
2022/05/23 05:21:38;;;;;;;;;;;;;;;24.30;62.37;99046.34;2043357;28;20230;-46
2022/05/23 05:22:39;;;;;;;;;;;;;;;24.29;62.46;99044.63;2045147;28;20300;-45
2022/05/23 05:23:39;;;;;;;;;;;;;;;24.27;62.73;99046.72;2041338;28;19949;-46
2022/05/23 05:24:39;;;;;;;;;;;;;;;24.28;62.78;99048.44;2042109;28;20618;-45
2022/05/23 05:25:41;;;;;;;;;;;;;;;24.28;62.79;99045.69;2042523;28;19914;-45
2022/05/23 05:26:41;;;;;;;;;;;;;;;24.29;62.33;99058.38;2043229;28;19914;-45
2022/05/23 05:27:42;;;;;;;;;;;;;;;24.30;62.37;99049.09;2043177;28;20012;-45
2022/05/23 05:28:42;;;;;;;;;;;;;;;24.29;62.42;99052.03;2043025;28;19965;-44
2022/05/23 05:29:42;;;;;;;;;;;;;;;24.29;62.33;99058.38;2041347;28;19910;-43
2022/05/23 05:30:46;;;;;;;;;;;;;;;24.29;62.48;99055.63;2042507;28;19913;-46
2022/05/23 05:31:49;;;;;;;;;;;;;;;24.30;62.78;99056.47;2041220;28;19922;-47
2022/05/23 05:32:58;;;;;;;;;;;;;;;24.30;62.37;99056.47;2045131;28;19922;-44
2022/05/23 05:34:04;;;;;;;;;;;;;;;24.28;62.27;99059.47;2045536;28;20339;-47
2022/05/23 05:35:12;;;;;;;;;;;;;;;24.27;62.69;99056.91;2042850;28;20025;-45
2022/05/23 05:36:16;;;;;;;;;;;;;;;24.24;61.87;99054.56;2043469;28;20132;-45
2022/05/23 05:37:19;;;;;;;;;;;;;;;24.20;61.06;99058.78;2044867;28;19918;-46
2022/05/23 05:38:32;;;;;;;;;;;;;;;24.18;60.54;99051.59;2044213;28;19922;-46
2022/05/23 05:39:35;;;;;;;;;;;;;;;24.18;60.25;99056.25;2043583;28;19940;-46
2022/05/23 05:40:35;;;;;;;;;;;;;;;24.18;60.18;99053.50;2045506;28;19918;-47